Time;durP1;ratioP1;P1;durP2;ratioP2;P2;SDS_P1;SDS_P2;PMS_P1;PMS_P2;Temp;Humidity;BMP_temperature;BMP_pressure;BME280_temperature;BME280_humidity;BME280_pressure;Samples;Min_cycle;Max_cycle;Signal;HPM_P1;HPM_P2
2021/01/14 00:00:34;;;;;;;9.85;4.70;;;4.90;99.90;;;;;;5052731;28;20039;-62
2021/01/14 00:03:02;;;;;;;10.98;4.53;;;4.90;99.90;;;;;;5050417;28;20112;-62
2021/01/14 00:05:27;;;;;;;12.65;5.90;;;4.90;99.90;;;;;;5053426;28;20067;-62
2021/01/14 00:07:53;;;;;;;11.82;5.18;;;4.80;99.90;;;;;;5050655;28;20029;-61
2021/01/14 00:10:20;;;;;;;14.73;4.85;;;4.70;99.90;;;;;;5052684;28;20053;-63
2021/01/14 00:12:47;;;;;;;10.07;4.38;;;4.70;99.90;;;;;;5055400;28;20032;-64
2021/01/14 00:15:14;;;;;;;13.35;5.07;;;4.80;99.90;;;;;;5054960;28;20068;-62
2021/01/14 00:17:41;;;;;;;13.15;5.70;;;4.90;99.90;;;;;;5056181;28;20133;-64
2021/01/14 00:20:11;;;;;;;10.15;4.70;;;4.90;99.90;;;;;;5054512;28;20036;-65
2021/01/14 00:22:36;;;;;;;16.40;6.00;;;4.90;99.90;;;;;;5038079;28;20099;-64
2021/01/14 00:25:05;;;;;;;12.00;5.05;;;4.90;99.90;;;;;;5053436;28;20510;-62
2021/01/14 00:27:30;;;;;;;18.13;5.63;;;5.00;99.90;;;;;;5053861;28;20083;-61
2021/01/14 00:29:56;;;;;;;11.32;4.72;;;5.00;99.90;;;;;;5054552;28;20025;-62
2021/01/14 00:32:21;;;;;;;16.55;5.55;;;5.00;99.90;;;;;;5053882;28;20052;-61
2021/01/14 00:34:47;;;;;;;10.25;4.43;;;5.10;99.90;;;;;;5054250;28;20056;-60
2021/01/14 00:39:57;;;;;;;10.35;4.35;;;5.00;99.90;;;;;;5054013;28;20562;-62
2021/01/14 00:42:23;;;;;;;6.50;4.30;;;4.90;99.90;;;;;;5054518;28;20053;-61
2021/01/14 00:44:48;;;;;;;15.32;5.13;;;5.00;99.90;;;;;;5052823;28;20021;-60
2021/01/14 00:47:14;;;;;;;17.55;6.07;;;4.90;99.90;;;;;;5052774;28;20580;-60
2021/01/14 00:49:40;;;;;;;11.30;5.53;;;4.80;99.90;;;;;;5053819;28;20024;-62
2021/01/14 00:52:08;;;;;;;12.95;5.95;;;4.90;99.90;;;;;;5052177;28;20025;-63
2021/01/14 00:54:34;;;;;;;10.15;5.25;;;4.80;99.90;;;;;;5052613;28;20029;-61
2021/01/14 00:56:59;;;;;;;11.13;4.88;;;4.90;99.90;;;;;;5053816;28;20063;-62
2021/01/14 00:59:25;;;;;;;16.02;5.57;;;4.80;99.90;;;;;;5053620;28;20028;-61
2021/01/14 01:01:50;;;;;;;8.02;5.35;;;4.70;99.90;;;;;;5053026;28;20025;-60
2021/01/14 01:04:16;;;;;;;12.52;5.78;;;4.90;99.90;;;;;;5052660;28;20438;-60
2021/01/14 01:06:42;;;;;;;10.90;5.70;;;4.90;99.90;;;;;;5053017;28;20565;-61
2021/01/14 01:09:10;;;;;;;11.27;5.50;;;4.90;99.90;;;;;;5050892;28;20078;-61
2021/01/14 01:11:36;;;;;;;8.75;5.05;;;4.90;99.90;;;;;;5052884;28;20025;-60
2021/01/14 01:14:03;;;;;;;8.98;5.30;;;4.90;99.90;;;;;;5051052;28;20029;-61
2021/01/14 01:16:29;;;;;;;9.20;5.15;;;4.90;99.90;;;;;;5051154;28;20120;-61
2021/01/14 01:18:54;;;;;;;7.97;5.15;;;4.90;99.90;;;;;;5051982;28;20561;-61
2021/01/14 01:21:20;;;;;;;9.98;5.80;;;4.90;99.90;;;;;;5051420;28;20098;-59
2021/01/14 01:23:46;;;;;;;11.52;5.97;;;4.80;99.90;;;;;;5052697;28;20451;-60
2021/01/14 01:26:16;;;;;;;11.60;6.78;;;4.70;99.90;;;;;;5051917;28;20029;-61
2021/01/14 01:28:42;;;;;;;10.43;5.97;;;4.70;99.90;;;;;;5052637;28;20053;-60
2021/01/14 01:31:09;;;;;;;10.23;5.70;;;4.70;99.90;;;;;;5050734;28;20490;-60
2021/01/14 01:33:35;;;;;;;11.20;5.25;;;4.80;99.90;;;;;;5052334;28;20386;-60
2021/01/14 01:36:00;;;;;;;12.23;6.40;;;4.80;99.90;;;;;;5052158;28;20025;-60
2021/01/14 01:38:26;;;;;;;9.23;5.70;;;4.80;99.90;;;;;;5051323;28;20036;-60
2021/01/14 01:40:55;;;;;;;7.93;4.82;;;4.70;99.90;;;;;;5050982;28;20079;-59
2021/01/14 01:43:22;;;;;;;7.70;4.55;;;4.70;99.90;;;;;;5051191;28;20059;-59
2021/01/14 01:45:48;;;;;;;9.05;4.57;;;4.70;99.90;;;;;;5051170;28;20025;-61
2021/01/14 01:48:16;;;;;;;10.05;3.88;;;4.70;99.90;;;;;;5052034;28;20037;-61
2021/01/14 01:50:41;;;;;;;10.77;3.83;;;4.70;99.90;;;;;;5051406;28;20029;-70
2021/01/14 01:53:09;;;;;;;9.07;3.22;;;4.80;99.90;;;;;;5053124;28;20036;-59
2021/01/14 01:55:35;;;;;;;7.43;3.33;;;4.90;99.90;;;;;;5056480;28;20025;-60
2021/01/14 01:58:01;;;;;;;7.75;3.17;;;4.80;99.90;;;;;;5056251;28;20029;-61
2021/01/14 02:00:27;;;;;;;9.40;2.70;;;4.70;99.90;;;;;;5056071;28;20079;-59
2021/01/14 02:02:52;;;;;;;8.52;2.13;;;4.70;99.90;;;;;;5055291;28;20123;-61
2021/01/14 02:05:18;;;;;;;7.07;2.63;;;4.80;99.90;;;;;;5056247;28;20057;-59
2021/01/14 02:07:53;;;;;;;8.45;2.55;;;4.80;99.90;;;;;;5056119;28;20028;-60
2021/01/14 02:10:31;;;;;;;7.35;2.42;;;4.80;99.70;;;;;;5055540;28;20124;-60
2021/01/14 02:13:39;;;;;;;3.78;2.53;;;4.70;99.20;;;;;;5056421;28;20032;-72
2021/01/14 02:16:05;;;;;;;4.70;1.77;;;4.70;98.40;;;;;;5056503;28;20483;-61
2021/01/14 02:18:31;;;;;;;8.07;2.05;;;4.70;98.20;;;;;;5056521;28;20037;-60
2021/01/14 02:21:03;;;;;;;6.80;1.95;;;4.70;98.20;;;;;;5054348;28;20033;-73
2021/01/14 02:23:38;;;;;;;4.60;1.70;;;4.60;97.90;;;;;;5056139;28;20035;-60
2021/01/14 02:26:25;;;;;;;3.05;1.63;;;4.70;97.70;;;;;;5055784;28;20459;-63
2021/01/14 02:28:52;;;;;;;8.50;1.50;;;4.70;97.70;;;;;;5054858;28;20025;-61
2021/01/14 02:31:20;;;;;;;9.82;1.23;;;4.70;96.50;;;;;;5053895;28;20068;-61
2021/01/14 02:33:51;;;;;;;4.57;1.30;;;4.60;95.60;;;;;;5054664;28;20025;-60
2021/01/14 02:36:17;;;;;;;6.07;1.38;;;4.60;95.40;;;;;;5053783;28;20104;-62
2021/01/14 02:38:42;;;;;;;7.22;1.23;;;4.40;95.20;;;;;;5056059;28;20060;-59
2021/01/14 02:41:08;;;;;;;3.90;1.05;;;4.50;94.50;;;;;;5054093;28;20041;-62
2021/01/14 02:43:35;;;;;;;4.35;1.55;;;4.50;94.60;;;;;;5055448;28;20029;-60
2021/01/14 02:46:02;;;;;;;5.18;1.42;;;4.40;95.00;;;;;;5053675;28;20028;-61
2021/01/14 02:48:55;;;;;;;5.78;1.23;;;4.50;95.20;;;;;;5054498;28;20450;-59
2021/01/14 02:51:41;;;;;;;2.65;1.20;;;4.40;95.00;;;;;;5055041;28;20024;-60
2021/01/14 02:54:08;;;;;;;3.95;1.13;;;4.40;95.50;;;;;;5053644;28;20033;-63
2021/01/14 02:56:37;;;;;;;8.02;1.20;;;4.40;95.10;;;;;;5055240;28;20025;-60
2021/01/14 02:59:03;;;;;;;7.50;1.15;;;4.50;95.00;;;;;;5053561;28;20025;-61
2021/01/14 03:01:29;;;;;;;5.07;1.38;;;4.50;95.00;;;;;;5055290;28;20459;-60
2021/01/14 03:03:55;;;;;;;4.85;1.52;;;4.40;95.10;;;;;;5053800;28;20028;-61
2021/01/14 03:06:20;;;;;;;5.35;1.08;;;4.40;95.40;;;;;;5053426;28;20032;-59
2021/01/14 03:08:46;;;;;;;9.02;1.63;;;4.50;95.60;;;;;;5054809;28;20386;-61
2021/01/14 03:11:12;;;;;;;4.78;1.50;;;4.40;95.20;;;;;;5054699;28;20071;-59
2021/01/14 03:13:38;;;;;;;5.85;1.25;;;4.30;95.30;;;;;;5053877;28;20048;-60
2021/01/14 03:16:06;;;;;;;5.18;1.15;;;4.40;95.00;;;;;;5053274;28;20071;-60
2021/01/14 03:18:31;;;;;;;4.00;1.23;;;4.40;94.70;;;;;;5053772;28;20192;-61
2021/01/14 03:20:57;;;;;;;2.25;1.10;;;4.30;95.00;;;;;;5055189;28;20126;-60
2021/01/14 03:23:23;;;;;;;3.92;1.08;;;4.30;94.90;;;;;;5053288;28;20374;-60
2021/01/14 03:25:48;;;;;;;6.40;1.20;;;4.20;94.80;;;;;;5054562;28;20036;-60
2021/01/14 03:28:14;;;;;;;3.88;1.00;;;4.10;94.90;;;;;;5053049;28;20037;-60
2021/01/14 03:30:39;;;;;;;5.38;0.88;;;4.20;94.90;;;;;;5053991;28;20032;-63
2021/01/14 03:33:05;;;;;;;5.53;2.08;;;4.20;94.80;;;;;;5054102;28;20029;-60
2021/01/14 03:35:31;;;;;;;4.72;1.70;;;4.20;94.50;;;;;;5053777;28;20032;-61
2021/01/14 03:37:56;;;;;;;7.15;1.23;;;4.00;94.90;;;;;;5053473;28;20413;-62
2021/01/14 03:40:22;;;;;;;6.63;1.00;;;4.10;94.70;;;;;;5052740;28;20466;-59
2021/01/14 03:42:47;;;;;;;2.90;0.88;;;4.00;94.80;;;;;;5054312;28;20490;-60
2021/01/14 03:45:13;;;;;;;7.90;0.95;;;4.00;94.90;;;;;;5052548;28;20131;-59
2021/01/14 03:47:39;;;;;;;4.15;1.27;;;4.00;95.10;;;;;;5053752;28;20036;-60
2021/01/14 03:50:06;;;;;;;4.45;0.93;;;4.10;95.20;;;;;;5053340;28;20083;-61
2021/01/14 03:52:32;;;;;;;4.35;0.82;;;4.00;95.20;;;;;;5055709;28;20021;-59
2021/01/14 03:54:57;;;;;;;3.50;0.63;;;3.90;95.60;;;;;;5054955;28;20098;-59
2021/01/14 03:57:23;;;;;;;6.38;0.65;;;3.80;95.90;;;;;;5052739;28;20036;-61
2021/01/14 03:59:48;;;;;;;5.68;1.67;;;3.70;95.90;;;;;;5053903;28;20029;-61
2021/01/14 04:02:14;;;;;;;4.40;0.80;;;3.80;96.30;;;;;;5053421;28;20363;-61
2021/01/14 04:04:41;;;;;;;4.95;1.75;;;3.80;96.20;;;;;;5054311;28;20351;-60
2021/01/14 04:07:08;;;;;;;4.80;1.00;;;3.70;96.30;;;;;;5052453;28;20129;-61
2021/01/14 04:09:37;;;;;;;5.88;1.88;;;3.70;96.60;;;;;;5053916;28;20494;-61
2021/01/14 04:12:04;;;;;;;5.60;1.35;;;3.70;96.70;;;;;;5052704;28;20052;-59
2021/01/14 04:14:30;;;;;;;2.70;0.80;;;3.70;96.80;;;;;;5053766;28;20029;-59
2021/01/14 04:16:56;;;;;;;8.63;1.02;;;3.80;96.60;;;;;;5052085;28;20112;-59
2021/01/14 04:19:21;;;;;;;3.58;0.80;;;3.80;96.80;;;;;;5035779;28;20176;-60
2021/01/14 04:21:47;;;;;;;5.53;1.27;;;3.90;96.90;;;;;;5053021;28;20360;-61
2021/01/14 04:24:14;;;;;;;5.82;1.05;;;3.80;96.80;;;;;;5052217;28;20485;-60
2021/01/14 04:26:39;;;;;;;4.90;0.95;;;3.80;96.80;;;;;;5052721;28;20036;-60
2021/01/14 04:29:05;;;;;;;12.23;1.80;;;3.80;96.90;;;;;;5053940;28;20028;-67
2021/01/14 04:31:32;;;;;;;17.40;2.75;;;3.80;97.00;;;;;;5054922;28;20025;-68
2021/01/14 04:33:58;;;;;;;10.65;1.33;;;3.80;97.00;;;;;;5055593;28;20032;-62
2021/01/14 04:36:24;;;;;;;3.97;1.10;;;3.70;97.40;;;;;;5052717;28;20494;-60
2021/01/14 04:38:50;;;;;;;6.43;1.20;;;3.70;97.30;;;;;;5052670;28;20429;-61
2021/01/14 04:41:18;;;;;;;3.33;0.70;;;3.80;97.40;;;;;;5052069;28;20045;-62
2021/01/14 04:43:44;;;;;;;6.85;1.00;;;3.80;97.20;;;;;;5052978;28;20025;-59
2021/01/14 04:46:11;;;;;;;9.60;1.83;;;3.70;97.20;;;;;;5051698;28;20063;-65
2021/01/14 04:48:40;;;;;;;12.60;1.15;;;3.70;97.50;;;;;;5052733;28;20055;-61
2021/01/14 04:51:19;;;;;;;6.88;1.23;;;3.80;97.50;;;;;;5052011;28;20483;-64
2021/01/14 04:53:47;;;;;;;5.18;1.27;;;3.70;97.50;;;;;;5052304;28;20032;-63
2021/01/14 04:56:14;;;;;;;5.75;1.40;;;3.60;97.70;;;;;;5051250;28;20059;-59
2021/01/14 04:58:41;;;;;;;24.00;7.38;;;3.50;97.90;;;;;;5052359;28;20029;-63
2021/01/14 05:01:23;;;;;;;18.77;2.45;;;4.50;99.90;;;;;;5052755;28;20040;-70
2021/01/14 05:03:52;;;;;;;5.13;0.77;;;4.80;99.90;;;;;;5052442;28;20390;-62
2021/01/14 05:06:18;;;;;;;8.20;0.93;;;4.70;99.70;;;;;;5051260;28;20040;-59
2021/01/14 05:08:46;;;;;;;2.40;0.68;;;4.40;98.00;;;;;;5052043;28;20454;-62
2021/01/14 05:11:16;;;;;;;6.97;0.77;;;4.10;97.80;;;;;;5053443;28;20083;-64
2021/01/14 05:13:44;;;;;;;2.08;0.90;;;3.90;98.10;;;;;;5052769;28;20059;-61
2021/01/14 05:16:10;;;;;;;15.15;2.47;;;3.80;98.20;;;;;;5052646;28;20493;-62
2021/01/14 05:18:36;;;;;;;16.30;1.48;;;3.80;98.00;;;;;;5053228;28;20475;-60
2021/01/14 05:21:02;;;;;;;13.73;2.53;;;3.70;98.30;;;;;;5053173;28;20035;-71
2021/01/14 05:23:31;;;;;;;7.75;1.75;;;3.70;98.40;;;;;;5050738;28;20075;-59
2021/01/14 05:25:57;;;;;;;5.95;1.10;;;3.70;98.40;;;;;;5051951;28;20458;-63
2021/01/14 05:28:25;;;;;;;8.38;2.90;;;3.60;98.40;;;;;;5051680;28;20029;-60
2021/01/14 05:30:52;;;;;;;3.85;1.15;;;3.60;98.50;;;;;;5053020;28;20029;-60
2021/01/14 05:33:22;;;;;;;8.40;1.05;;;3.60;98.60;;;;;;5052271;28;20025;-59
2021/01/14 05:35:50;;;;;;;11.15;1.20;;;3.60;98.00;;;;;;5052963;28;20032;-60
2021/01/14 05:38:27;;;;;;;4.95;1.00;;;3.70;98.20;;;;;;5051255;28;20045;-61
2021/01/14 05:43:58;;;;;;;3.50;0.70;;;3.70;97.90;;;;;;5053097;28;20429;-62
2021/01/14 05:46:28;;;;;;;8.68;0.90;;;3.70;97.70;;;;;;5052316;28;20032;-60
2021/01/14 05:49:02;;;;;;;12.93;2.05;;;3.80;98.00;;;;;;5052680;28;20060;-59
2021/01/14 05:51:30;;;;;;;7.03;0.95;;;3.70;98.20;;;;;;5052096;28;20029;-62
2021/01/14 05:54:05;;;;;;;2.45;0.73;;;3.70;98.10;;;;;;5035062;28;20029;-59
2021/01/14 05:56:39;;;;;;;10.13;1.42;;;3.80;98.00;;;;;;5050931;28;20056;-61
2021/01/14 05:59:16;;;;;;;5.50;1.38;;;3.70;98.10;;;;;;5051274;28;20032;-59
2021/01/14 06:01:57;;;;;;;9.02;2.97;;;3.80;98.40;;;;;;5052977;28;20064;-61
2021/01/14 06:04:25;;;;;;;9.25;1.27;;;3.80;98.10;;;;;;5050786;28;20036;-60
2021/01/14 06:06:52;;;;;;;7.30;0.80;;;3.70;98.60;;;;;;5051000;28;20033;-62
2021/01/14 06:09:20;;;;;;;14.05;1.40;;;3.80;98.50;;;;;;5052018;28;20060;-62
2021/01/14 06:11:47;;;;;;;8.35;1.30;;;3.70;98.50;;;;;;5051476;28;20029;-60
2021/01/14 06:14:29;;;;;;;9.48;1.73;;;3.70;98.20;;;;;;5052123;28;20028;-62
2021/01/14 06:16:56;;;;;;;12.38;1.25;;;3.70;98.10;;;;;;5052441;28;20080;-62
2021/01/14 06:19:25;;;;;;;12.18;1.67;;;3.70;98.20;;;;;;5051875;28;20044;-66
2021/01/14 06:21:55;;;;;;;8.85;2.05;;;3.70;98.30;;;;;;5052826;28;20025;-61
2021/01/14 06:24:36;;;;;;;4.20;0.90;;;3.60;98.10;;;;;;5050742;28;20363;-62
2021/01/14 06:27:04;;;;;;;4.05;0.85;;;3.60;98.30;;;;;;5051351;28;20029;-60
2021/01/14 06:29:38;;;;;;;3.80;1.13;;;3.60;98.30;;;;;;5050483;28;20470;-61
2021/01/14 06:32:05;;;;;;;7.63;0.82;;;3.70;98.40;;;;;;5051354;28;20032;-64
2021/01/14 06:34:33;;;;;;;5.60;0.98;;;3.60;98.30;;;;;;5051405;28;20029;-63
2021/01/14 06:37:12;;;;;;;10.00;2.03;;;3.80;98.20;;;;;;5051075;28;20036;-59
2021/01/14 06:39:49;;;;;;;6.57;2.47;;;3.70;98.40;;;;;;5053518;28;20064;-66
2021/01/14 06:42:23;;;;;;;8.63;2.10;;;3.70;98.40;;;;;;5055278;28;20083;-61
2021/01/14 06:44:59;;;;;;;12.13;1.95;;;3.70;98.80;;;;;;5054563;28;20032;-60
2021/01/14 06:47:36;;;;;;;3.50;0.98;;;3.60;99.20;;;;;;5055454;28;20041;-61
2021/01/14 06:50:19;;;;;;;5.20;0.73;;;3.60;98.20;;;;;;5055755;28;20463;-61
2021/01/14 06:53:01;;;;;;;11.43;2.58;;;3.60;98.30;;;;;;5055357;28;20029;-65
2021/01/14 06:55:30;;;;;;;9.65;1.58;;;3.70;98.40;;;;;;5054905;28;20108;-61
2021/01/14 06:58:10;;;;;;;2.65;1.33;;;3.70;98.40;;;;;;5055347;28;20075;-60
2021/01/14 07:00:41;;;;;;;6.95;1.85;;;3.70;98.20;;;;;;5053541;28;20036;-61
2021/01/14 07:03:19;;;;;;;8.38;1.05;;;3.70;98.30;;;;;;5055426;28;20217;-62
2021/01/14 07:05:58;;;;;;;13.35;1.42;;;3.60;98.50;;;;;;5054168;28;20037;-61
2021/01/14 07:08:38;;;;;;;4.85;1.40;;;3.60;98.60;;;;;;5054781;28;20035;-60
2021/01/14 07:11:13;;;;;;;8.57;2.38;;;3.70;98.20;;;;;;5053994;28;20044;-60
2021/01/14 07:13:42;;;;;;;6.25;2.03;;;3.80;98.20;;;;;;5055074;28;20099;-61
2021/01/14 07:16:10;;;;;;;12.98;1.77;;;3.70;98.50;;;;;;5055473;28;20495;-60
2021/01/14 07:18:38;;;;;;;4.55;1.02;;;3.70;98.40;;;;;;5053360;28;20033;-63
2021/01/14 07:21:37;;;;;;;4.80;1.20;;;3.60;98.60;;;;;;5053670;28;20029;-63
2021/01/14 07:24:21;;;;;;;7.00;1.90;;;3.70;98.70;;;;;;5033242;28;20545;-60
2021/01/14 07:33:30;;;;;;;6.72;1.90;;;3.60;98.30;;;;;;5310897;22;20467;-66
2021/01/14 07:36:19;;;;;;;6.20;1.45;;;3.60;98.70;;;;;;5048952;28;20034;-66
2021/01/14 07:38:50;;;;;;;6.25;1.38;;;3.50;98.60;;;;;;5047702;28;20033;-66
2021/01/14 07:41:15;;;;;;;5.38;1.30;;;3.50;98.70;;;;;;5047599;28;20478;-66
2021/01/14 07:43:45;;;;;;;6.55;2.15;;;3.60;98.60;;;;;;5031327;28;20033;-66
2021/01/14 07:46:17;;;;;;;10.63;1.63;;;3.60;98.60;;;;;;5030839;28;20025;-66
2021/01/14 07:48:44;;;;;;;7.70;1.45;;;3.70;98.60;;;;;;5046905;28;20025;-66
2021/01/14 07:51:10;;;;;;;4.20;1.73;;;3.70;98.50;;;;;;5031422;28;20108;-66
2021/01/14 07:53:36;;;;;;;10.70;1.70;;;3.70;98.80;;;;;;5047068;28;20022;-66
2021/01/14 07:56:24;;;;;;;8.57;1.50;;;3.80;98.40;;;;;;5032152;28;20022;-67
2021/01/14 07:58:54;;;;;;;9.85;1.50;;;3.60;98.50;;;;;;5047311;28;20025;-66
2021/01/14 08:01:19;;;;;;;13.27;2.03;;;3.60;98.60;;;;;;5047640;28;20037;-66
2021/01/14 08:03:45;;;;;;;16.85;2.60;;;3.60;98.50;;;;;;5031326;28;20025;-66
2021/01/14 08:06:17;;;;;;;16.92;2.05;;;3.60;98.70;;;;;;5032235;28;20030;-66
2021/01/14 08:09:10;;;;;;;7.80;2.20;;;3.70;98.70;;;;;;5046668;28;20259;-66
2021/01/14 08:11:36;;;;;;;13.15;1.98;;;3.70;98.50;;;;;;5031146;28;20471;-66
2021/01/14 08:14:14;;;;;;;7.72;2.00;;;3.60;98.70;;;;;;5047380;28;20025;-66
2021/01/14 08:16:40;;;;;;;11.60;3.67;;;3.70;98.40;;;;;;5029844;28;20025;-68
2021/01/14 08:19:33;;;;;;;25.67;2.53;;;3.70;98.40;;;;;;5047084;28;20068;-66
2021/01/14 08:21:58;;;;;;;12.35;1.75;;;3.70;98.30;;;;;;5030488;28;20030;-66
2021/01/14 08:24:39;;;;;;;9.20;2.22;;;3.80;98.30;;;;;;5046279;28;20050;-67
2021/01/14 08:27:11;;;;;;;6.72;1.60;;;3.80;98.10;;;;;;5031857;28;20063;-65
2021/01/14 08:29:43;;;;;;;17.10;2.35;;;3.90;98.20;;;;;;5029475;28;20033;-66
2021/01/14 08:32:40;;;;;;;4.68;1.70;;;3.80;98.30;;;;;;5030294;28;20116;-65
2021/01/14 08:35:16;;;;;;;13.55;2.78;;;3.90;98.30;;;;;;5046375;28;20061;-66
2021/01/14 08:37:53;;;;;;;9.52;1.73;;;3.90;98.40;;;;;;5045730;28;20030;-65
2021/01/14 08:40:21;;;;;;;9.93;2.17;;;3.90;98.30;;;;;;5030072;28;20544;-66
2021/01/14 08:42:48;;;;;;;9.82;2.05;;;3.90;98.40;;;;;;5046053;28;20056;-66
2021/01/14 08:45:20;;;;;;;6.53;2.15;;;3.90;98.10;;;;;;5030153;28;20387;-66
2021/01/14 08:47:52;;;;;;;5.75;2.13;;;3.90;98.00;;;;;;5030844;28;20044;-66
2021/01/14 08:50:18;;;;;;;8.75;2.25;;;3.90;98.30;;;;;;5031351;28;20033;-66
2021/01/14 08:52:45;;;;;;;15.20;2.50;;;3.90;98.40;;;;;;5045355;28;20057;-67
2021/01/14 08:55:13;;;;;;;20.08;3.22;;;4.00;98.10;;;;;;5030513;28;20033;-65
2021/01/14 08:57:52;;;;;;;8.65;2.90;;;4.00;98.10;;;;;;5030484;28;20483;-66
2021/01/14 09:00:18;;;;;;;13.32;2.92;;;4.10;98.20;;;;;;5030956;28;20038;-68
2021/01/14 09:02:44;;;;;;;7.72;1.98;;;4.20;97.80;;;;;;5030314;28;20059;-66
2021/01/14 09:05:12;;;;;;;18.52;3.17;;;4.20;97.90;;;;;;5029511;28;20040;-67
2021/01/14 09:07:37;;;;;;;9.98;1.98;;;4.10;97.90;;;;;;5029349;28;20025;-66
2021/01/14 09:10:04;;;;;;;6.18;2.28;;;4.20;97.70;;;;;;5030888;28;20438;-65
2021/01/14 09:12:29;;;;;;;9.48;2.45;;;4.30;97.50;;;;;;5030188;28;20041;-66
2021/01/14 09:14:55;;;;;;;11.23;2.05;;;4.20;97.40;;;;;;5030973;28;20411;-67
2021/01/14 09:17:21;;;;;;;12.88;2.05;;;4.30;97.60;;;;;;5030998;28;20040;-67
2021/01/14 09:19:53;;;;;;;10.75;2.13;;;4.30;97.80;;;;;;5045517;28;20229;-67
2021/01/14 09:22:28;;;;;;;14.20;2.40;;;4.30;97.90;;;;;;5031251;28;20459;-67
2021/01/14 09:24:54;;;;;;;22.73;3.95;;;4.40;97.30;;;;;;5029660;28;20043;-67
2021/01/14 09:27:28;;;;;;;16.45;2.85;;;4.40;97.50;;;;;;5031521;28;20108;-66
2021/01/14 09:29:55;;;;;;;3.85;1.23;;;4.50;97.40;;;;;;5046222;28;20026;-66
2021/01/14 09:32:21;;;;;;;6.63;1.90;;;4.40;97.20;;;;;;5046286;28;20021;-68
2021/01/14 09:34:47;;;;;;;10.75;1.52;;;4.30;96.80;;;;;;5028734;28;20112;-67
2021/01/14 09:37:17;;;;;;;16.77;3.28;;;4.40;97.10;;;;;;5046032;28;20061;-67
2021/01/14 09:39:45;;;;;;;5.55;1.40;;;4.50;96.60;;;;;;5030142;28;20088;-68
2021/01/14 09:42:17;;;;;;;10.27;2.17;;;4.50;96.30;;;;;;5030964;28;20082;-68
2021/01/14 09:44:43;;;;;;;11.93;2.30;;;4.80;96.00;;;;;;5045621;28;20079;-68
2021/01/14 09:47:09;;;;;;;5.85;2.80;;;4.70;96.10;;;;;;5030870;28;20033;-69
2021/01/14 09:49:35;;;;;;;4.13;1.25;;;4.70;96.10;;;;;;5029914;28;20032;-69
2021/01/14 09:52:01;;;;;;;7.15;1.60;;;4.50;96.60;;;;;;5030837;28;20033;-68
2021/01/14 09:54:29;;;;;;;13.57;1.40;;;4.50;96.70;;;;;;5045638;28;20040;-67
2021/01/14 09:56:55;;;;;;;21.00;2.97;;;4.60;96.00;;;;;;5029488;28;20394;-68
2021/01/14 09:59:27;;;;;;;10.70;2.22;;;4.60;95.70;;;;;;5030180;28;20029;-68
2021/01/14 10:01:54;;;;;;;6.00;1.60;;;4.20;96.40;;;;;;5043480;28;20120;-68
2021/01/14 10:04:25;;;;;;;12.98;2.38;;;4.20;96.70;;;;;;5029813;28;20067;-68
2021/01/14 10:07:06;;;;;;;5.50;1.40;;;4.40;96.70;;;;;;5028111;28;20072;-68
2021/01/14 10:09:36;;;;;;;8.98;2.05;;;4.50;96.10;;;;;;5043892;28;20040;-68
2021/01/14 10:12:04;;;;;;;5.18;1.45;;;4.60;95.80;;;;;;5027732;28;20044;-67
2021/01/14 10:14:30;;;;;;;6.93;2.03;;;4.60;95.80;;;;;;5032974;28;20527;-68
2021/01/14 10:17:06;;;;;;;6.20;1.17;;;4.70;95.30;;;;;;5032658;28;20025;-68
2021/01/14 10:19:36;;;;;;;2.13;1.00;;;4.50;95.60;;;;;;5031560;28;20049;-67
2021/01/14 10:22:05;;;;;;;5.43;1.20;;;4.70;96.00;;;;;;5031437;28;20119;-68
2021/01/14 10:24:31;;;;;;;7.05;1.95;;;4.70;95.80;;;;;;5033291;28;20095;-68
2021/01/14 10:27:12;;;;;;;8.77;1.60;;;4.70;95.50;;;;;;5032632;28;20129;-69
2021/01/14 10:29:38;;;;;;;15.57;2.40;;;4.80;95.20;;;;;;5029589;28;20135;-69
2021/01/14 10:32:21;;;;;;;14.45;2.08;;;4.80;95.70;;;;;;5031941;28;20053;-68
2021/01/14 10:34:54;;;;;;;18.17;4.05;;;4.80;95.60;;;;;;5031465;28;20088;-68
2021/01/14 10:37:23;;;;;;;18.33;2.95;;;4.70;96.50;;;;;;5049739;28;20099;-69
2021/01/14 10:39:59;;;;;;;5.30;1.58;;;4.80;95.70;;;;;;5030357;28;20455;-69
2021/01/14 10:42:35;;;;;;;3.00;1.35;;;4.90;95.00;;;;;;5031529;28;20030;-68
2021/01/14 10:45:10;;;;;;;3.28;1.27;;;4.80;94.70;;;;;;5032361;28;20029;-70
2021/01/14 10:47:37;;;;;;;3.25;1.10;;;4.70;95.00;;;;;;5030367;28;20048;-69
2021/01/14 10:50:21;;;;;;;9.38;2.25;;;4.70;95.10;;;;;;5031978;28;20079;-68
2021/01/14 10:53:04;;;;;;;8.98;2.50;;;4.70;95.10;;;;;;5028582;28;20029;-68
2021/01/14 10:55:34;;;;;;;6.60;1.98;;;4.80;95.30;;;;;;5031084;28;20124;-68
2021/01/14 10:58:01;;;;;;;8.75;1.75;;;4.70;95.10;;;;;;5044194;28;20455;-68
2021/01/14 11:00:39;;;;;;;7.05;1.60;;;4.80;95.00;;;;;;5030926;28;20021;-69
2021/01/14 11:03:07;;;;;;;4.72;1.02;;;4.80;95.20;;;;;;5030480;28;20098;-68
2021/01/14 11:05:47;;;;;;;8.75;1.75;;;4.70;95.20;;;;;;5029987;28;20121;-68
2021/01/14 11:08:15;;;;;;;7.82;1.67;;;4.80;95.10;;;;;;5034243;28;20029;-69
2021/01/14 11:10:42;;;;;;;8.00;1.83;;;4.80;95.30;;;;;;5035989;28;20113;-69
2021/01/14 11:13:13;;;;;;;9.40;1.75;;;4.90;95.30;;;;;;5041509;28;20025;-69
2021/01/14 11:15:39;;;;;;;9.63;2.22;;;4.80;95.40;;;;;;5033714;28;20033;-68
2021/01/14 11:18:07;;;;;;;14.75;1.77;;;4.90;95.30;;;;;;5044219;28;20032;-70
2021/01/14 11:20:34;;;;;;;11.90;2.50;;;5.10;94.90;;;;;;5032682;28;20037;-68
2021/01/14 11:23:00;;;;;;;10.60;2.28;;;5.20;94.90;;;;;;5040007;28;20479;-68
2021/01/14 11:25:26;;;;;;;13.93;2.47;;;5.20;94.90;;;;;;5036689;28;20056;-69
2021/01/14 11:27:53;;;;;;;6.85;1.63;;;5.30;94.70;;;;;;5030741;28;20029;-68
2021/01/14 11:30:20;;;;;;;3.88;1.50;;;5.20;94.50;;;;;;5028831;28;20025;-69
2021/01/14 11:32:46;;;;;;;11.48;2.58;;;5.00;95.10;;;;;;5028877;28;20040;-67
2021/01/14 11:35:13;;;;;;;12.77;3.05;;;5.10;95.00;;;;;;5042072;28;20056;-69
2021/01/14 11:37:39;;;;;;;20.85;2.50;;;5.20;95.00;;;;;;5037089;28;20040;-70
2021/01/14 11:40:06;;;;;;;5.60;1.80;;;5.20;95.10;;;;;;5031757;28;20033;-68
2021/01/14 11:42:31;;;;;;;13.32;2.17;;;5.30;95.20;;;;;;5045212;28;20108;-68
2021/01/14 11:44:57;;;;;;;8.55;2.05;;;5.50;94.70;;;;;;5040473;28;20109;-68
2021/01/14 11:47:22;;;;;;;20.08;3.72;;;5.50;94.40;;;;;;5039812;28;20467;-69
2021/01/14 11:49:48;;;;;;;5.95;2.03;;;5.50;94.60;;;;;;5047137;28;20056;-69
2021/01/14 11:52:15;;;;;;;21.10;3.45;;;5.60;94.50;;;;;;5034947;28;20079;-68
2021/01/14 11:54:42;;;;;;;17.88;2.70;;;5.70;94.50;;;;;;5043529;28;20024;-69
2021/01/14 11:57:09;;;;;;;7.30;2.30;;;5.60;94.30;;;;;;5042615;28;20021;-68
2021/01/14 11:59:34;;;;;;;11.88;2.17;;;5.70;94.10;;;;;;5037816;28;20076;-68
2021/01/14 12:02:00;;;;;;;13.88;3.28;;;5.80;93.90;;;;;;5025565;28;20057;-69
2021/01/14 12:04:26;;;;;;;6.85;2.80;;;5.70;94.20;;;;;;5036348;28;20053;-69
2021/01/14 12:06:52;;;;;;;8.70;2.30;;;5.60;94.60;;;;;;5028925;28;20423;-69
2021/01/14 12:09:18;;;;;;;5.18;2.40;;;5.60;94.60;;;;;;5040824;28;20036;-68
2021/01/14 12:11:44;;;;;;;8.93;2.60;;;5.70;94.70;;;;;;5033426;28;20068;-69
2021/01/14 12:14:09;;;;;;;11.70;1.75;;;5.80;94.70;;;;;;5047925;28;20052;-69
2021/01/14 12:16:35;;;;;;;11.45;2.60;;;5.80;94.20;;;;;;5035605;28;20016;-69
2021/01/14 12:19:01;;;;;;;12.68;3.08;;;5.80;94.50;;;;;;5040391;28;20024;-70
2021/01/14 12:21:27;;;;;;;11.73;2.90;;;5.80;94.30;;;;;;5042950;28;20029;-69
2021/01/14 12:23:52;;;;;;;10.45;3.83;;;5.80;94.30;;;;;;5034443;28;20029;-70
2021/01/14 12:26:19;;;;;;;6.85;2.83;;;6.00;93.90;;;;;;5047623;28;20092;-69
2021/01/14 12:28:45;;;;;;;5.85;2.42;;;6.10;93.60;;;;;;5036597;28;20040;-69
2021/01/14 12:31:11;;;;;;;10.98;3.50;;;6.00;93.80;;;;;;5017254;28;20037;-69
2021/01/14 12:33:38;;;;;;;13.30;2.42;;;5.80;94.10;;;;;;5039909;28;20060;-69
2021/01/14 12:36:04;;;;;;;7.03;3.13;;;5.60;94.60;;;;;;5031267;28;20021;-68
2021/01/14 12:38:30;;;;;;;5.25;3.38;;;5.60;95.00;;;;;;5043484;28;20013;-69
2021/01/14 12:40:55;;;;;;;7.72;2.72;;;5.60;94.90;;;;;;5037586;28;20025;-69
2021/01/14 12:43:21;;;;;;;4.60;2.25;;;5.90;94.70;;;;;;5038712;28;20022;-70
2021/01/14 12:45:46;;;;;;;8.70;2.10;;;5.80;94.50;;;;;;5029492;28;20021;-69
2021/01/14 12:48:12;;;;;;;9.20;3.60;;;6.00;94.10;;;;;;5047090;28;20030;-70
2021/01/14 12:50:44;;;;;;;11.00;4.38;;;5.70;94.70;;;;;;5037287;28;20105;-69
2021/01/14 12:53:09;;;;;;;11.85;4.43;;;5.70;94.50;;;;;;5032898;28;20387;-68
2021/01/14 12:55:36;;;;;;;17.40;3.22;;;5.80;94.60;;;;;;5028828;28;20026;-69
2021/01/14 12:58:03;;;;;;;8.23;2.50;;;5.90;94.40;;;;;;5033192;28;20462;-68
2021/01/14 13:00:28;;;;;;;12.93;3.10;;;6.00;94.50;;;;;;5027665;28;20352;-68
2021/01/14 13:02:54;;;;;;;26.50;3.10;;;5.90;94.30;;;;;;5027379;28;20024;-68
2021/01/14 13:05:20;;;;;;;7.18;2.75;;;5.80;94.60;;;;;;5028380;28;20109;-69
2021/01/14 13:07:46;;;;;;;7.22;3.83;;;5.80;94.70;;;;;;5028755;28;20028;-69
2021/01/14 13:10:12;;;;;;;7.85;3.30;;;5.90;94.80;;;;;;5031709;28;20425;-69
2021/01/14 13:12:37;;;;;;;7.95;2.90;;;5.90;95.00;;;;;;5049148;28;20024;-70
2021/01/14 13:15:04;;;;;;;11.45;4.07;;;5.90;94.80;;;;;;5048901;28;20374;-69